CheckWX is a tool to help pilots better visualize weather data.  It is not intended as a substitute for an official pre-flight weather briefing.

05:10:29 UTC

CYXR METAR
Earlton (Timiskaming Regional) Airport
Earlton, Canada
Current

5 mins ago

CYXR 240505Z AUTO 11010KT 9SM -FZRA FEW037 OVC085 M03/M03 A2989 RMK ICG PRESFR SLP136
Observed
Feb-24 @ 05:05 UTC
Wind
  • 110° at 10 KTS
Visibility
9 SM
Flight Rules
VFR
Conditions
Light Freezing Light Rain
Cloud Levels
  • Few at 3,700' AGL
  • Overcast at 8,500' AGL
Temperature
-3°C / 27°F
Dewpoint
-3°C / 27°F
Humidity
100%
Altimeter
29.89" Hg
Pressure
1013.6 hPa
Previous

24 mins ago

CYXR 240446Z AUTO 10007KT 6SM -SN BKN041 BKN090 OVC110 M03/M03 A2991 RMK ICG PRESFR SLP144
Observed
Feb-24 @ 04:46 UTC
Wind
  • 100° at 7 KTS
Visibility
6 SM
Flight Rules
VFR
Conditions
Light Snow
Cloud Levels
  • Broken at 4,100' AGL
  • Broken at 9,000' AGL
  • Overcast at 11,000' AGL
Temperature
-3°C / 27°F
Dewpoint
-3°C / 27°F
Humidity
100%
Altimeter
29.91" Hg
Pressure
1014.4 hPa
Previous

35 mins ago

CYXR 240435Z AUTO 11007KT 8SM -FZRA -SN BKN043 BKN055 OVC067 M03/M03 A2992 RMK ICG PRESFR SLP149
Observed
Feb-24 @ 04:35 UTC
Wind
  • 110° at 7 KTS
Visibility
8 SM
Flight Rules
VFR
Conditions
Light Freezing Light Rain, Light Snow
Cloud Levels
  • Broken at 4,300' AGL
  • Broken at 5,500' AGL
  • Overcast at 6,700' AGL
Temperature
-3°C / 27°F
Dewpoint
-3°C / 27°F
Humidity
100%
Altimeter
29.92" Hg
Pressure
1014.9 hPa